Time;durP1;ratioP1;P1;durP2;ratioP2;P2;SDS_P1;SDS_P2;PMS_P1;PMS_P2;Temp;Humidity;BMP_temperature;BMP_pressure;BME280_temperature;BME280_humidity;BME280_pressure;Samples;Min_cycle;Max_cycle;Signal;HPM_P1;HPM_P2
2022/08/20 00:01:41;;;;;;;22.15;16.95;;;21.90;98.10;;;;;;5073148;28;20444;-71
2022/08/20 00:04:07;;;;;;;24.90;17.17;;;21.90;98.40;;;;;;5070801;28;20427;-71
2022/08/20 00:06:33;;;;;;;20.65;16.25;;;21.90;98.10;;;;;;5071999;28;20024;-71
2022/08/20 00:08:58;;;;;;;23.35;16.00;;;21.90;98.10;;;;;;5064738;28;20091;-72
2022/08/20 00:11:26;;;;;;;19.63;15.57;;;21.90;98.20;;;;;;5070980;28;20118;-71
2022/08/20 00:13:55;;;;;;;18.65;14.75;;;21.90;98.20;;;;;;5064354;28;20020;-71
2022/08/20 00:16:23;;;;;;;23.63;16.02;;;21.90;98.20;;;;;;5069751;28;20044;-71
2022/08/20 00:18:49;;;;;;;21.10;15.70;;;21.90;98.20;;;;;;5068080;28;20062;-71
2022/08/20 00:21:17;;;;;;;20.15;14.18;;;21.90;98.20;;;;;;5066920;28;20059;-71
2022/08/20 00:23:45;;;;;;;18.95;15.30;;;21.90;98.20;;;;;;5070599;28;20120;-70
2022/08/20 00:26:12;;;;;;;21.75;16.58;;;21.90;98.20;;;;;;5064321;28;20041;-71
2022/08/20 00:28:39;;;;;;;17.33;13.93;;;21.90;98.20;;;;;;5063369;28;20032;-71
2022/08/20 00:31:08;;;;;;;21.60;15.70;;;21.90;98.20;;;;;;5068386;28;20040;-70
2022/08/20 00:33:34;;;;;;;27.48;16.60;;;21.90;98.30;;;;;;5064279;28;20143;-71
2022/08/20 00:36:05;;;;;;;21.10;16.55;;;21.90;98.30;;;;;;5063750;28;20047;-71
2022/08/20 00:38:38;;;;;;;19.20;14.68;;;21.90;98.30;;;;;;5068855;28;20024;-71
2022/08/20 00:41:05;;;;;;;19.73;15.82;;;22.00;98.30;;;;;;5074375;28;20038;-71
2022/08/20 00:43:42;;;;;;;19.85;15.05;;;21.90;98.30;;;;;;5067544;28;20027;-71
2022/08/20 00:46:14;;;;;;;20.42;15.30;;;21.90;98.30;;;;;;5067362;28;20390;-71
2022/08/20 00:48:43;;;;;;;17.33;13.45;;;21.90;98.50;;;;;;5066145;28;20036;-71
2022/08/20 00:51:11;;;;;;;19.23;15.15;;;21.90;98.40;;;;;;5065253;28;20037;-71
2022/08/20 00:53:37;;;;;;;22.33;16.63;;;21.90;98.40;;;;;;5074667;28;20127;-71
2022/08/20 00:56:06;;;;;;;21.02;15.13;;;21.90;98.40;;;;;;5073766;28;20671;-71
2022/08/20 00:58:33;;;;;;;17.48;14.40;;;21.90;98.40;;;;;;5070363;28;20024;-71
2022/08/20 01:00:59;;;;;;;19.45;15.82;;;21.90;98.70;;;;;;5072411;28;20044;-71
2022/08/20 01:03:25;;;;;;;20.63;14.68;;;22.00;98.50;;;;;;5069351;28;20462;-71
2022/08/20 01:05:51;;;;;;;19.73;15.32;;;21.90;98.80;;;;;;5068550;28;20029;-71
2022/08/20 01:08:19;;;;;;;18.10;14.45;;;22.00;98.50;;;;;;5068533;28;20058;-71
2022/08/20 01:10:48;;;;;;;18.92;14.98;;;22.00;98.50;;;;;;5063095;28;20048;-71
2022/08/20 01:13:19;;;;;;;20.75;15.10;;;22.00;98.50;;;;;;5067713;28;20036;-71
2022/08/20 01:15:50;;;;;;;19.27;14.95;;;22.00;98.50;;;;;;5070972;28;20144;-71
2022/08/20 01:18:23;;;;;;;16.05;13.57;;;22.00;98.50;;;;;;5070273;28;20052;-71
2022/08/20 01:21:02;;;;;;;19.75;14.13;;;22.00;98.40;;;;;;5073175;28;20035;-71
2022/08/20 01:23:39;;;;;;;18.48;14.45;;;22.00;98.50;;;;;;5067946;28;20028;-71
2022/08/20 01:26:24;;;;;;;17.38;14.48;;;22.10;98.60;;;;;;5075642;28;20067;-71
2022/08/20 01:28:54;;;;;;;18.90;15.07;;;22.00;98.50;;;;;;5066867;28;20035;-71
2022/08/20 01:31:33;;;;;;;16.83;14.13;;;22.00;98.40;;;;;;5064602;28;20032;-71
2022/08/20 01:34:02;;;;;;;17.17;14.15;;;22.00;98.50;;;;;;5069661;28;20059;-71
2022/08/20 01:36:39;;;;;;;18.75;14.00;;;22.00;98.50;;;;;;5071482;28;20028;-71
2022/08/20 01:39:08;;;;;;;23.17;14.63;;;22.00;98.50;;;;;;5072296;28;20040;-71
2022/08/20 01:41:48;;;;;;;18.55;15.07;;;22.00;98.40;;;;;;5077052;28;20028;-71
2022/08/20 01:44:14;;;;;;;17.13;14.20;;;22.00;98.40;;;;;;5075484;28;20033;-71
2022/08/20 01:46:42;;;;;;;18.33;14.23;;;22.10;98.30;;;;;;5069423;28;20029;-71
2022/08/20 01:49:29;;;;;;;15.80;13.52;;;22.10;98.30;;;;;;5077018;28;20032;-71
2022/08/20 01:51:59;;;;;;;17.90;14.50;;;22.00;98.20;;;;;;5078456;28;20096;-71
2022/08/20 01:54:25;;;;;;;18.85;15.25;;;22.00;98.30;;;;;;5080364;28;20066;-70
2022/08/20 01:56:56;;;;;;;17.73;13.85;;;22.00;98.30;;;;;;5079640;28;20487;-71
2022/08/20 01:59:22;;;;;;;18.05;14.05;;;22.00;98.30;;;;;;5071419;28;20040;-70
2022/08/20 02:01:48;;;;;;;21.20;16.65;;;22.00;98.30;;;;;;5068493;28;20029;-69
2022/08/20 02:04:16;;;;;;;17.90;13.68;;;22.00;98.40;;;;;;5067577;28;20100;-71
2022/08/20 02:06:46;;;;;;;17.90;14.25;;;22.00;98.30;;;;;;5074621;28;20028;-71
2022/08/20 02:09:12;;;;;;;21.63;15.48;;;22.00;98.40;;;;;;5073227;28;20125;-71
2022/08/20 02:11:38;;;;;;;18.30;14.85;;;22.00;98.30;;;;;;5075647;28;20085;-70
2022/08/20 02:14:07;;;;;;;18.10;15.13;;;22.00;98.20;;;;;;5067775;28;20592;-71
2022/08/20 02:16:37;;;;;;;18.95;14.95;;;22.00;98.30;;;;;;5066460;28;20032;-71
2022/08/20 02:19:11;;;;;;;19.90;15.65;;;21.90;98.30;;;;;;5065522;28;20032;-71
2022/08/20 02:21:43;;;;;;;20.35;15.93;;;21.90;98.40;;;;;;5063184;28;20681;-71
2022/08/20 02:24:09;;;;;;;18.73;16.08;;;21.90;98.50;;;;;;5071433;28;20840;-71
2022/08/20 02:26:36;;;;;;;19.02;15.15;;;21.90;98.50;;;;;;5062914;28;20025;-71
2022/08/20 02:29:06;;;;;;;19.50;15.45;;;22.00;98.40;;;;;;5074981;28;20037;-70
2022/08/20 02:31:32;;;;;;;20.88;15.10;;;21.90;98.40;;;;;;5068941;28;20487;-71
2022/08/20 02:33:58;;;;;;;21.95;16.38;;;21.90;98.40;;;;;;5072829;28;20501;-71
2022/08/20 02:36:26;;;;;;;21.80;17.80;;;21.90;98.40;;;;;;5069259;28;20040;-71
2022/08/20 02:38:52;;;;;;;20.50;16.30;;;21.90;98.50;;;;;;5068198;28;20036;-71
2022/08/20 02:41:20;;;;;;;23.45;17.35;;;21.90;98.50;;;;;;5076072;28;20036;-71
2022/08/20 02:43:46;;;;;;;18.58;15.20;;;21.90;98.50;;;;;;5066992;28;20037;-71
2022/08/20 02:46:14;;;;;;;18.10;14.70;;;21.90;98.50;;;;;;5062737;28;20586;-71
2022/08/20 02:48:41;;;;;;;22.95;17.52;;;22.00;98.40;;;;;;5069532;28;20024;-71
2022/08/20 02:51:07;;;;;;;26.23;18.23;;;21.90;98.50;;;;;;5068600;28;20498;-71
2022/08/20 02:53:40;;;;;;;29.90;20.17;;;21.90;98.50;;;;;;5069690;28;20024;-71
2022/08/20 02:56:06;;;;;;;27.45;18.27;;;21.90;98.60;;;;;;5066038;28;20190;-71
2022/08/20 02:58:32;;;;;;;25.00;18.60;;;21.90;98.50;;;;;;5073600;28;20119;-71
2022/08/20 03:00:58;;;;;;;27.15;18.20;;;21.90;98.50;;;;;;5063721;28;20492;-70
2022/08/20 03:03:24;;;;;;;22.50;16.88;;;21.90;98.70;;;;;;5069722;28;20028;-70
2022/08/20 03:05:52;;;;;;;22.85;16.65;;;21.90;98.50;;;;;;5069835;28;20032;-71
2022/08/20 03:08:20;;;;;;;22.95;17.27;;;21.90;98.50;;;;;;5077214;28;20048;-71
2022/08/20 03:10:47;;;;;;;23.00;17.63;;;21.90;98.50;;;;;;5071404;28;20039;-71
2022/08/20 03:13:14;;;;;;;26.20;19.77;;;21.90;98.50;;;;;;5069638;28;20036;-71
2022/08/20 03:15:46;;;;;;;25.77;17.70;;;21.90;98.50;;;;;;5072378;28;20028;-71
2022/08/20 03:18:12;;;;;;;23.15;16.70;;;21.80;98.50;;;;;;5065561;28;20066;-71
2022/08/20 03:20:39;;;;;;;25.33;17.90;;;21.90;98.60;;;;;;5070462;28;20024;-71
2022/08/20 03:23:05;;;;;;;27.08;19.02;;;21.80;98.60;;;;;;5061691;28;20028;-71
2022/08/20 03:25:32;;;;;;;23.42;17.92;;;21.80;98.60;;;;;;5077052;28;20042;-71
2022/08/20 03:27:58;;;;;;;25.48;19.05;;;21.80;98.60;;;;;;5067999;28;20492;-71
2022/08/20 03:30:26;;;;;;;26.38;20.08;;;21.90;98.70;;;;;;5069808;28;20148;-71
2022/08/20 03:32:52;;;;;;;27.63;19.80;;;21.90;98.60;;;;;;5064941;28;20115;-70
2022/08/20 03:35:19;;;;;;;26.15;19.05;;;21.90;98.60;;;;;;5070698;28;20048;-70
2022/08/20 03:37:45;;;;;;;23.98;19.10;;;21.80;98.60;;;;;;5062935;28;20043;-70
2022/08/20 03:40:15;;;;;;;28.13;19.38;;;21.80;98.60;;;;;;5064576;28;20025;-70
2022/08/20 03:42:41;;;;;;;21.65;16.75;;;21.80;98.70;;;;;;5058922;28;20066;-70
2022/08/20 03:45:11;;;;;;;27.27;20.38;;;21.80;98.60;;;;;;5068316;28;20060;-70
2022/08/20 03:47:38;;;;;;;29.77;20.27;;;21.90;98.60;;;;;;5070142;28;20040;-70
2022/08/20 03:50:06;;;;;;;25.10;18.05;;;21.80;98.60;;;;;;5066389;28;20804;-70
2022/08/20 03:52:32;;;;;;;22.45;16.98;;;21.80;98.70;;;;;;5066025;28;20500;-70
2022/08/20 03:54:57;;;;;;;26.33;17.80;;;21.80;98.60;;;;;;5065408;28;20044;-70
2022/08/20 03:57:23;;;;;;;28.35;19.77;;;21.80;98.60;;;;;;5065025;28;20024;-70
2022/08/20 03:59:50;;;;;;;28.70;19.38;;;21.80;98.60;;;;;;5073666;28;20062;-71
2022/08/20 04:02:16;;;;;;;25.67;19.23;;;21.90;98.60;;;;;;5061757;28;20039;-71
2022/08/20 04:04:42;;;;;;;29.85;21.50;;;21.90;98.60;;;;;;5070022;28;20483;-72
2022/08/20 04:07:13;;;;;;;32.85;23.30;;;21.90;98.50;;;;;;5067638;28;20054;-72
2022/08/20 04:09:39;;;;;;;27.48;21.08;;;21.90;98.50;;;;;;5070497;28;20050;-72
2022/08/20 04:12:07;;;;;;;33.60;20.92;;;21.90;98.40;;;;;;5076919;28;20480;-72
2022/08/20 04:14:35;;;;;;;32.22;21.63;;;21.90;98.50;;;;;;5076299;28;20052;-72
2022/08/20 04:17:06;;;;;;;35.13;22.38;;;21.90;98.40;;;;;;5074889;28;20040;-71
2022/08/20 04:19:32;;;;;;;28.83;20.38;;;21.90;98.50;;;;;;5066089;28;20024;-71
2022/08/20 04:21:58;;;;;;;33.08;21.17;;;21.90;98.40;;;;;;5067508;28;20025;-71
2022/08/20 04:24:26;;;;;;;27.25;19.85;;;21.90;98.40;;;;;;5074289;28;20040;-72
2022/08/20 04:26:53;;;;;;;25.88;18.83;;;21.90;98.50;;;;;;5071084;28;20055;-71
2022/08/20 04:29:20;;;;;;;30.98;20.65;;;21.90;98.40;;;;;;5066813;28;20036;-72
2022/08/20 04:31:47;;;;;;;29.77;21.30;;;21.90;98.40;;;;;;5070768;28;20142;-72
2022/08/20 04:34:13;;;;;;;29.92;22.08;;;21.90;98.40;;;;;;5063603;28;20044;-71
2022/08/20 04:36:42;;;;;;;29.85;21.05;;;21.90;98.30;;;;;;5061157;28;20021;-71
2022/08/20 04:39:08;;;;;;;32.25;22.02;;;21.90;98.20;;;;;;5072217;28;20031;-71
2022/08/20 04:41:33;;;;;;;29.52;21.33;;;21.90;98.10;;;;;;5067152;28;20028;-72
2022/08/20 04:44:00;;;;;;;32.10;21.85;;;21.90;98.00;;;;;;5075360;28;20123;-72
2022/08/20 04:46:27;;;;;;;42.88;26.95;;;21.90;98.10;;;;;;5068100;28;20040;-72
2022/08/20 04:48:54;;;;;;;35.67;23.27;;;21.90;98.00;;;;;;5069171;28;20029;-72
2022/08/20 04:51:20;;;;;;;32.95;22.20;;;21.90;97.90;;;;;;5070945;28;20515;-72
2022/08/20 04:53:47;;;;;;;30.13;20.90;;;21.90;98.00;;;;;;5061254;28;20538;-71
2022/08/20 04:56:13;;;;;;;32.03;23.17;;;21.90;98.00;;;;;;5072049;28;20028;-71
2022/08/20 04:58:39;;;;;;;33.13;20.98;;;22.00;98.00;;;;;;5059835;28;20108;-71
2022/08/20 05:01:08;;;;;;;32.22;22.58;;;21.90;97.90;;;;;;5066688;28;20055;-72
2022/08/20 05:03:36;;;;;;;35.03;23.33;;;21.90;97.90;;;;;;5072663;28;20468;-72
2022/08/20 05:06:04;;;;;;;35.53;24.65;;;22.00;97.80;;;;;;5065248;28;20036;-71
2022/08/20 05:08:32;;;;;;;35.03;23.42;;;22.00;97.80;;;;;;5064769;28;20285;-72
2022/08/20 05:10:57;;;;;;;29.30;20.52;;;22.00;97.60;;;;;;5066710;28;20087;-71
2022/08/20 05:13:24;;;;;;;32.58;21.38;;;22.00;97.70;;;;;;5068552;28;20146;-71
2022/08/20 05:15:51;;;;;;;38.53;22.77;;;22.00;97.60;;;;;;5058670;28;20024;-71
2022/08/20 05:18:21;;;;;;;30.05;20.63;;;22.00;97.60;;;;;;5068876;28;20404;-71
2022/08/20 05:20:48;;;;;;;27.98;19.98;;;22.00;97.50;;;;;;5068052;28;20027;-72
2022/08/20 05:23:15;;;;;;;27.17;19.65;;;22.00;97.40;;;;;;5065572;28;20020;-72
2022/08/20 05:25:43;;;;;;;27.55;19.30;;;22.00;97.30;;;;;;5067817;28;20027;-71
2022/08/20 05:28:16;;;;;;;25.65;18.73;;;22.00;97.30;;;;;;5069266;28;20067;-71
2022/08/20 05:30:44;;;;;;;27.00;18.55;;;22.00;97.30;;;;;;5065351;28;20058;-71
2022/08/20 05:33:12;;;;;;;27.40;19.05;;;22.10;97.30;;;;;;5064542;28;20542;-71
2022/08/20 05:35:39;;;;;;;27.25;18.55;;;22.10;97.10;;;;;;5067671;28;20020;-71
2022/08/20 05:38:07;;;;;;;29.13;20.70;;;22.10;97.20;;;;;;5074735;28;20477;-72
2022/08/20 05:40:34;;;;;;;29.65;21.35;;;22.00;97.10;;;;;;5073064;28;20020;-72
2022/08/20 05:43:03;;;;;;;30.48;19.98;;;22.00;97.10;;;;;;5068815;28;20025;-71
2022/08/20 05:45:30;;;;;;;31.55;21.27;;;22.10;97.10;;;;;;5068476;28;20123;-72
2022/08/20 05:47:57;;;;;;;31.10;21.98;;;22.00;97.10;;;;;;5072343;28;20040;-72
2022/08/20 05:50:23;;;;;;;31.77;21.65;;;22.10;97.10;;;;;;5066749;28;20036;-71
2022/08/20 05:52:50;;;;;;;33.00;21.77;;;22.10;96.90;;;;;;5066474;28;20539;-72
2022/08/20 05:55:16;;;;;;;27.23;19.23;;;22.10;97.00;;;;;;5071497;28;20510;-72
2022/08/20 05:57:42;;;;;;;29.38;20.50;;;22.10;97.00;;;;;;5075694;28;20032;-71
2022/08/20 06:00:12;;;;;;;27.73;20.52;;;22.10;97.00;;;;;;5074040;28;20032;-71
2022/08/20 06:05:24;;;;;;;31.65;21.85;;;22.10;97.00;;;;;;5068267;28;20140;-72
2022/08/20 06:07:51;;;;;;;26.02;19.75;;;22.10;97.00;;;;;;5066800;28;20531;-72
2022/08/20 06:10:17;;;;;;;25.05;17.52;;;22.10;97.10;;;;;;5071116;28;20036;-71
2022/08/20 06:12:46;;;;;;;28.30;19.80;;;22.10;97.00;;;;;;5071045;28;20074;-72
2022/08/20 06:15:12;;;;;;;27.50;20.55;;;22.10;97.00;;;;;;5074237;28;20488;-72
2022/08/20 06:17:38;;;;;;;27.17;19.70;;;22.10;97.20;;;;;;5079782;28;20581;-72
2022/08/20 06:20:08;;;;;;;27.35;19.48;;;22.00;97.20;;;;;;5070024;28;20036;-72
2022/08/20 06:22:34;;;;;;;31.58;21.10;;;22.00;97.00;;;;;;5081068;28;20032;-72
2022/08/20 06:25:01;;;;;;;32.75;22.98;;;22.00;96.90;;;;;;5075887;28;20140;-72
2022/08/20 06:27:27;;;;;;;28.83;20.40;;;22.10;97.00;;;;;;5078977;28;20051;-72
2022/08/20 06:29:53;;;;;;;28.02;20.27;;;22.10;97.00;;;;;;5072500;28;20051;-72
2022/08/20 06:32:21;;;;;;;30.10;20.92;;;22.00;97.00;;;;;;5068866;28;20031;-72
2022/08/20 06:34:47;;;;;;;23.80;18.98;;;22.10;97.00;;;;;;5074691;28;20070;-72
2022/08/20 06:37:15;;;;;;;31.05;21.42;;;22.10;97.20;;;;;;5071491;28;20040;-72
2022/08/20 06:39:41;;;;;;;34.13;22.77;;;22.00;97.20;;;;;;5073851;28;20501;-71
2022/08/20 06:42:07;;;;;;;31.08;21.33;;;22.00;97.30;;;;;;5073604;28;20032;-71
2022/08/20 06:44:33;;;;;;;30.58;22.42;;;22.00;97.20;;;;;;5067092;28;20035;-72
2022/08/20 06:47:03;;;;;;;29.17;22.05;;;22.10;97.20;;;;;;5064801;28;20039;-72
2022/08/20 06:49:29;;;;;;;31.13;22.52;;;22.10;97.10;;;;;;5065680;28;20115;-71
2022/08/20 06:51:56;;;;;;;29.17;20.90;;;22.10;97.10;;;;;;5067886;28;20047;-72
2022/08/20 06:54:22;;;;;;;30.92;22.63;;;22.10;97.20;;;;;;5070035;28;20461;-72
2022/08/20 06:56:48;;;;;;;30.55;22.10;;;22.20;97.20;;;;;;5071926;28;20040;-72
2022/08/20 06:59:13;;;;;;;29.17;21.75;;;22.20;97.10;;;;;;5067515;28;20148;-72
2022/08/20 07:01:39;;;;;;;25.90;19.85;;;22.20;97.00;;;;;;5069428;28;20027;-73
2022/08/20 07:04:07;;;;;;;32.70;23.13;;;22.30;97.00;;;;;;5075143;28;20087;-72
2022/08/20 07:06:33;;;;;;;33.55;22.85;;;22.30;96.90;;;;;;5077865;28;20039;-72
2022/08/20 07:08:58;;;;;;;31.20;22.50;;;22.30;96.70;;;;;;5066997;28;20796;-72
2022/08/20 07:11:25;;;;;;;29.58;21.02;;;22.40;96.70;;;;;;5065538;28;20036;-73
2022/08/20 07:13:51;;;;;;;30.63;23.00;;;22.40;96.60;;;;;;5070961;28;20036;-72
2022/08/20 07:16:17;;;;;;;34.55;24.13;;;22.40;96.60;;;;;;5070525;28;20071;-72
2022/08/20 07:18:43;;;;;;;29.02;21.48;;;22.40;96.50;;;;;;5067578;28;20104;-72
2022/08/20 07:21:10;;;;;;;29.60;22.25;;;22.50;96.40;;;;;;5068332;28;20051;-72
2022/08/20 07:23:37;;;;;;;34.05;24.15;;;22.40;96.30;;;;;;5064811;28;20035;-72
2022/08/20 07:26:03;;;;;;;31.33;21.95;;;22.50;96.20;;;;;;5065900;28;20063;-72
2022/08/20 07:28:30;;;;;;;28.77;20.65;;;22.50;96.00;;;;;;5062426;28;20028;-72
2022/08/20 07:33:41;;;;;;;32.33;23.88;;;22.50;96.10;;;;;;5074082;28;20028;-72
2022/08/20 07:36:09;;;;;;;28.20;21.25;;;22.50;96.00;;;;;;5069786;28;20036;-72
2022/08/20 07:38:35;;;;;;;27.73;19.45;;;22.50;95.90;;;;;;5070703;28;20233;-72
2022/08/20 07:41:05;;;;;;;25.38;20.27;;;22.50;96.10;;;;;;5064838;28;20112;-72
2022/08/20 07:43:31;;;;;;;28.38;20.90;;;22.60;96.10;;;;;;5065380;28;20038;-72
2022/08/20 07:46:00;;;;;;;26.23;20.00;;;22.60;95.90;;;;;;5069248;28;20028;-73
2022/08/20 07:48:30;;;;;;;25.70;19.73;;;22.60;96.00;;;;;;5068213;28;20036;-72
2022/08/20 07:50:57;;;;;;;26.95;19.48;;;22.60;95.80;;;;;;5072632;28;20086;-72
2022/08/20 07:53:24;;;;;;;26.20;20.10;;;22.70;95.80;;;;;;5069554;28;20047;-72
2022/08/20 07:55:50;;;;;;;25.55;18.42;;;22.70;95.80;;;;;;5071177;28;20492;-72
2022/08/20 07:58:18;;;;;;;26.65;20.50;;;22.70;95.60;;;;;;5066688;28;20060;-72
2022/08/20 08:00:45;;;;;;;26.30;20.27;;;22.80;95.70;;;;;;5066058;28;20020;-72
2022/08/20 08:03:11;;;;;;;30.33;20.02;;;22.80;95.70;;;;;;5066777;28;20681;-72
2022/08/20 08:05:39;;;;;;;26.15;20.08;;;22.90;95.80;;;;;;5064796;28;20025;-72
2022/08/20 08:08:09;;;;;;;23.58;17.60;;;22.90;95.40;;;;;;5064602;28;20049;-72
2022/08/20 08:10:36;;;;;;;32.53;22.95;;;22.90;95.30;;;;;;5070204;28;20042;-70
2022/08/20 08:13:06;;;;;;;26.25;19.58;;;23.00;94.90;;;;;;5071014;28;20024;-70
2022/08/20 08:15:37;;;;;;;29.23;22.33;;;22.90;94.60;;;;;;5066311;28;20434;-70
2022/08/20 08:18:09;;;;;;;25.67;18.52;;;23.00;94.70;;;;;;5066734;28;20089;-72
2022/08/20 08:20:39;;;;;;;23.55;18.02;;;23.00;94.70;;;;;;5062949;28;20029;-71
2022/08/20 08:23:06;;;;;;;24.35;18.98;;;23.00;94.80;;;;;;5061512;28;20047;-71
2022/08/20 08:25:33;;;;;;;21.42;17.70;;;23.00;94.70;;;;;;5064089;28;20464;-71
2022/08/20 08:27:59;;;;;;;27.98;19.48;;;23.10;94.50;;;;;;5075906;28;20528;-71
2022/08/20 08:30:27;;;;;;;21.83;16.63;;;23.10;94.50;;;;;;5070052;28;20678;-71
2022/08/20 08:35:38;;;;;;;26.73;17.98;;;23.20;94.10;;;;;;5065429;28;20024;-71
2022/08/20 08:38:04;;;;;;;21.70;16.88;;;23.20;93.70;;;;;;5070984;28;20882;-71
2022/08/20 08:40:32;;;;;;;23.45;18.13;;;23.30;93.60;;;;;;5070017;28;20028;-71
2022/08/20 08:43:01;;;;;;;23.85;16.70;;;23.30;93.00;;;;;;5060686;28;20089;-71
2022/08/20 08:45:42;;;;;;;20.13;15.43;;;23.30;92.60;;;;;;5073306;28;20031;-71
2022/08/20 08:48:15;;;;;;;19.00;13.65;;;23.40;92.60;;;;;;5074716;28;20118;-71
2022/08/20 08:50:44;;;;;;;14.77;12.88;;;23.40;92.40;;;;;;5072355;28;20573;-71
2022/08/20 08:53:18;;;;;;;22.48;16.58;;;23.40;92.50;;;;;;5073564;28;20029;-71
2022/08/20 08:55:44;;;;;;;19.52;13.68;;;23.50;92.20;;;;;;5069925;28;20511;-70
2022/08/20 08:58:10;;;;;;;16.75;12.90;;;23.60;92.00;;;;;;5066385;28;20036;-71
2022/08/20 09:00:36;;;;;;;21.13;13.43;;;23.50;92.10;;;;;;5061783;28;20024;-71
2022/08/20 09:03:11;;;;;;;15.68;12.93;;;23.50;91.80;;;;;;5064025;28;20119;-71
2022/08/20 09:05:52;;;;;;;15.63;12.73;;;23.50;91.50;;;;;;5070598;28;20020;-71
2022/08/20 09:08:46;;;;;;;16.00;12.50;;;23.40;91.40;;;;;;5072073;28;20097;-71
2022/08/20 09:11:14;;;;;;;14.07;11.73;;;23.40;91.50;;;;;;5068659;28;20048;-71
2022/08/20 09:13:42;;;;;;;13.70;11.20;;;23.40;91.60;;;;;;5068022;28;20032;-71
2022/08/20 09:16:09;;;;;;;13.02;11.35;;;23.40;91.30;;;;;;5068246;28;20043;-71
2022/08/20 09:18:35;;;;;;;13.35;10.77;;;23.40;91.60;;;;;;5068433;28;20029;-71
2022/08/20 09:21:00;;;;;;;12.98;11.38;;;23.40;91.30;;;;;;5064200;28;20033;-70
2022/08/20 09:23:26;;;;;;;15.60;11.93;;;23.40;91.20;;;;;;5065788;28;20024;-70
2022/08/20 09:25:52;;;;;;;14.23;10.40;;;23.40;91.10;;;;;;5070459;28;20052;-71
2022/08/20 09:28:18;;;;;;;13.65;10.48;;;23.40;91.00;;;;;;5070212;28;20040;-71
2022/08/20 09:30:44;;;;;;;10.05;8.43;;;23.40;90.80;;;;;;5068568;28;20036;-71
2022/08/20 09:33:10;;;;;;;13.77;10.35;;;23.40;90.70;;;;;;5076498;28;20028;-71
2022/08/20 09:35:36;;;;;;;13.50;10.68;;;23.40;90.90;;;;;;5066095;28;20056;-71
2022/08/20 09:38:02;;;;;;;19.33;11.35;;;23.50;91.00;;;;;;5065766;28;20119;-71
2022/08/20 09:40:28;;;;;;;11.30;9.27;;;23.50;90.70;;;;;;5063895;28;20021;-71
2022/08/20 09:42:54;;;;;;;13.15;9.43;;;23.40;90.70;;;;;;5074679;28;20845;-71
2022/08/20 09:45:20;;;;;;;9.63;8.55;;;23.50;91.00;;;;;;5070147;28;20040;-71
2022/08/20 09:47:46;;;;;;;10.68;8.90;;;23.50;91.00;;;;;;5072769;28;20509;-71
2022/08/20 09:50:12;;;;;;;12.93;10.45;;;23.60;90.60;;;;;;5074150;28;20039;-71
2022/08/20 09:52:44;;;;;;;11.32;9.18;;;23.60;90.20;;;;;;5081733;28;20127;-71
2022/08/20 09:55:39;;;;;;;12.68;10.10;;;23.60;90.40;;;;;;5075178;28;20200;-71
2022/08/20 09:58:33;;;;;;;12.60;9.18;;;23.70;90.40;;;;;;5063694;28;20093;-71
2022/08/20 10:01:15;;;;;;;10.18;9.07;;;23.70;90.40;;;;;;5066938;28;20028;-71
2022/08/20 10:03:41;;;;;;;9.90;8.20;;;23.80;90.80;;;;;;5068967;28;20438;-71
2022/08/20 10:06:07;;;;;;;11.82;9.48;;;23.80;90.50;;;;;;5068849;28;20093;-71
2022/08/20 10:08:33;;;;;;;14.35;10.30;;;23.80;90.10;;;;;;5070783;28;20032;-71
2022/08/20 10:10:59;;;;;;;11.55;10.02;;;23.80;89.70;;;;;;5069921;28;20048;-71
2022/08/20 10:13:25;;;;;;;10.23;7.85;;;23.90;89.70;;;;;;5067443;28;20043;-71
2022/08/20 10:15:50;;;;;;;8.73;7.63;;;23.90;88.90;;;;;;5076375;28;20032;-71
2022/08/20 10:18:16;;;;;;;9.90;8.55;;;23.80;89.10;;;;;;5078396;28;20036;-71
2022/08/20 10:20:42;;;;;;;10.85;8.05;;;23.90;88.60;;;;;;5069531;28;20020;-71
2022/08/20 10:23:08;;;;;;;9.73;8.52;;;23.90;88.40;;;;;;5068684;28;20837;-71
2022/08/20 10:25:34;;;;;;;11.38;8.73;;;23.90;88.50;;;;;;5074747;28;20446;-71
2022/08/20 10:27:59;;;;;;;11.00;8.77;;;23.90;88.10;;;;;;5066042;28;20040;-72
2022/08/20 10:30:25;;;;;;;9.60;7.82;;;23.80;87.50;;;;;;5066775;28;20058;-71
2022/08/20 10:32:51;;;;;;;10.25;8.73;;;23.70;87.60;;;;;;5068739;28;20040;-70
2022/08/20 10:35:17;;;;;;;9.60;7.60;;;23.70;87.60;;;;;;5065196;28;20036;-71
2022/08/20 10:37:44;;;;;;;8.90;7.95;;;23.70;87.00;;;;;;5061376;28;20027;-71
2022/08/20 10:40:10;;;;;;;8.02;6.90;;;23.70;86.30;;;;;;5075473;28;20063;-71
2022/08/20 10:42:36;;;;;;;9.13;6.70;;;23.70;86.60;;;;;;5079752;28;20026;-71
2022/08/20 10:45:02;;;;;;;6.95;5.03;;;23.70;85.40;;;;;;5065456;28;20476;-71
2022/08/20 10:47:30;;;;;;;6.20;5.60;;;23.70;85.80;;;;;;5074210;28;20020;-71
2022/08/20 10:49:59;;;;;;;5.68;5.10;;;23.70;86.70;;;;;;5080009;28;20044;-71
2022/08/20 10:52:26;;;;;;;5.65;4.43;;;23.70;85.60;;;;;;5072273;28;20570;-70
2022/08/20 10:54:52;;;;;;;4.93;4.47;;;23.70;84.30;;;;;;5073085;28;20163;-71
2022/08/20 10:57:22;;;;;;;6.25;5.20;;;23.80;84.90;;;;;;5078965;28;20028;-71
2022/08/20 10:59:49;;;;;;;5.30;4.80;;;23.80;84.30;;;;;;5078147;28;20399;-71
2022/08/20 11:02:15;;;;;;;6.30;4.20;;;23.80;82.90;;;;;;5076677;28;20733;-71
2022/08/20 11:04:41;;;;;;;4.85;4.40;;;23.80;81.60;;;;;;5081882;28;20109;-71
2022/08/20 11:07:16;;;;;;;4.75;4.05;;;23.80;81.60;;;;;;5075124;28;20060;-71
2022/08/20 11:09:43;;;;;;;6.73;4.57;;;23.80;82.10;;;;;;5078255;28;20071;-71
2022/08/20 11:12:09;;;;;;;5.30;4.57;;;23.70;81.00;;;;;;5062296;28;20289;-70
2022/08/20 11:14:35;;;;;;;5.22;4.72;;;23.60;81.70;;;;;;5068820;28;20106;-71
2022/08/20 11:17:03;;;;;;;5.18;4.68;;;23.60;82.00;;;;;;5063917;28;20059;-72
2022/08/20 11:19:30;;;;;;;5.10;4.47;;;23.60;81.40;;;;;;5070689;28;20027;-72
2022/08/20 11:21:55;;;;;;;7.00;4.50;;;23.50;81.60;;;;;;5066807;28;20739;-71
2022/08/20 11:24:21;;;;;;;4.90;4.40;;;23.50;81.80;;;;;;5066265;28;20048;-71
2022/08/20 11:26:49;;;;;;;5.30;4.38;;;23.50;82.10;;;;;;5064999;28;20031;-71
2022/08/20 11:29:16;;;;;;;5.75;4.65;;;23.50;83.00;;;;;;5063227;28;20147;-71
2022/08/20 11:31:42;;;;;;;6.07;4.82;;;23.50;83.10;;;;;;5065147;28;20403;-71
2022/08/20 11:34:07;;;;;;;5.70;4.93;;;23.50;83.40;;;;;;5061618;28;20032;-72
2022/08/20 11:36:34;;;;;;;6.60;4.50;;;23.50;83.20;;;;;;5072956;28;20028;-71
2022/08/20 11:38:59;;;;;;;5.47;4.97;;;23.50;83.40;;;;;;5073220;28;20028;-71
2022/08/20 11:41:25;;;;;;;6.82;4.65;;;23.50;83.20;;;;;;5081028;28;20047;-71
2022/08/20 11:43:51;;;;;;;5.75;4.40;;;23.50;82.90;;;;;;5076053;28;20126;-72
2022/08/20 11:46:16;;;;;;;6.03;4.60;;;23.50;82.80;;;;;;5070949;28;20494;-71
2022/08/20 11:48:42;;;;;;;5.05;4.20;;;23.50;82.40;;;;;;5070922;28;20035;-72
2022/08/20 11:51:08;;;;;;;5.55;4.60;;;23.50;82.00;;;;;;5069944;28;20040;-71
2022/08/20 11:53:34;;;;;;;4.47;4.07;;;23.50;81.40;;;;;;5065439;28;20032;-71
2022/08/20 11:56:00;;;;;;;5.38;4.75;;;23.50;82.10;;;;;;5072482;28;20865;-71
2022/08/20 11:58:26;;;;;;;5.20;4.70;;;23.50;82.20;;;;;;5071268;28;20031;-71
2022/08/20 12:00:52;;;;;;;5.45;4.95;;;23.50;82.00;;;;;;5063767;28;20032;-71
2022/08/20 12:03:18;;;;;;;5.18;4.63;;;23.50;82.40;;;;;;5068473;28;20025;-71
2022/08/20 12:05:44;;;;;;;5.05;4.63;;;23.60;82.40;;;;;;5068121;28;20028;-71
2022/08/20 12:08:12;;;;;;;5.55;5.05;;;23.60;82.30;;;;;;5064035;28;20147;-71
2022/08/20 12:10:38;;;;;;;5.25;4.75;;;23.60;81.70;;;;;;5069231;28;20024;-71
2022/08/20 12:13:05;;;;;;;6.70;5.43;;;23.60;81.00;;;;;;5072626;28;20036;-71
2022/08/20 12:15:35;;;;;;;8.40;5.50;;;23.60;81.10;;;;;;5068471;28;20036;-71
2022/08/20 12:18:07;;;;;;;8.15;5.18;;;23.50;81.80;;;;;;5064797;28;20040;-71
2022/08/20 12:20:34;;;;;;;7.15;4.93;;;23.50;82.70;;;;;;5072866;28;20032;-71
2022/08/20 12:23:01;;;;;;;5.53;4.97;;;23.50;83.10;;;;;;5072034;28;20028;-71
2022/08/20 12:25:26;;;;;;;7.22;5.35;;;23.50;82.70;;;;;;5072093;28;20043;-71
2022/08/20 12:27:52;;;;;;;6.85;5.50;;;23.60;82.50;;;;;;5066348;28;20066;-71
2022/08/20 12:30:21;;;;;;;7.85;5.40;;;23.60;83.10;;;;;;5061563;28;20038;-71
2022/08/20 12:33:23;;;;;;;6.47;5.50;;;23.60;84.00;;;;;;5078802;28;20038;-71
2022/08/20 12:35:50;;;;;;;6.57;5.65;;;23.60;84.20;;;;;;5068800;28;20044;-72
2022/08/20 12:38:16;;;;;;;6.32;5.53;;;23.60;84.10;;;;;;5075976;28;20464;-72
2022/08/20 12:40:42;;;;;;;7.25;5.78;;;23.60;83.50;;;;;;5080166;28;20155;-71
2022/08/20 12:43:08;;;;;;;7.93;5.18;;;23.60;83.20;;;;;;5070519;28;20036;-71